createdAt,value
2022-11-05T00:01:02.791Z,75.80
2022-11-05T00:03:48.693Z,95.67
2022-11-05T00:06:34.907Z,96.77
2022-11-05T00:09:21.142Z,82.17
2022-11-05T00:12:07.101Z,118.33
2022-11-05T00:14:53.254Z,105.03
2022-11-05T00:17:21.204Z,105.23
2022-11-05T00:19:48.721Z,103.07
2022-11-05T00:22:34.569Z,114.83
2022-11-05T00:25:17.347Z,112.20
2022-11-05T00:27:47.612Z,108.13
2022-11-05T00:30:22.033Z,111.10
2022-11-05T00:32:51.755Z,104.77
2022-11-05T00:35:22.066Z,99.40
2022-11-05T00:37:50.613Z,84.70
2022-11-05T00:40:18.491Z,61.10
2022-11-05T00:43:04.421Z,63.33
2022-11-05T00:45:32.472Z,70.03
2022-11-05T00:48:18.336Z,64.37
2022-11-05T00:50:46.114Z,81.07
2022-11-05T00:53:13.886Z,60.00
2022-11-05T00:55:44.750Z,65.97
2022-11-05T00:58:23.258Z,69.03
2022-11-05T01:00:53.893Z,67.10
2022-11-05T01:03:26.580Z,62.93
2022-11-05T01:06:08.052Z,84.93
2022-11-05T01:08:36.548Z,86.87
2022-11-05T01:11:33.223Z,83.40
2022-11-05T01:14:07.836Z,92.53
2022-11-05T01:16:39.308Z,116.70
2022-11-05T01:19:10.162Z,122.60
2022-11-05T01:21:37.743Z,112.07
2022-11-05T01:24:05.773Z,106.07
2022-11-05T01:26:33.300Z,99.93
2022-11-05T01:29:00.892Z,103.93
2022-11-05T01:31:29.215Z,105.33
2022-11-05T01:33:56.669Z,102.13
2022-11-05T01:36:24.219Z,105.90
2022-11-05T01:38:51.714Z,86.63
2022-11-05T01:41:19.306Z,86.47
2022-11-05T01:43:51.050Z,76.03
2022-11-05T01:46:24.117Z,66.67
2022-11-05T01:48:57.271Z,56.77
2022-11-05T01:51:29.085Z,53.03
2022-11-05T01:54:04.924Z,46.63
2022-11-05T01:56:43.930Z,55.17
2022-11-05T01:59:30.706Z,51.87
2022-11-05T02:01:59.349Z,43.80
2022-11-05T02:05:07.643Z,45.50
2022-11-05T02:07:35.270Z,45.83
2022-11-05T02:10:13.828Z,41.27
2022-11-05T02:12:45.110Z,44.57
2022-11-05T02:15:52.059Z,48.30
2022-11-05T02:19:20.947Z,44.53
2022-11-05T02:22:38.643Z,44.13
2022-11-05T02:25:30.185Z,41.00
2022-11-05T02:54:49.829Z,45.73
2022-11-05T02:57:22.012Z,48.47
2022-11-05T02:59:49.548Z,57.50
2022-11-05T03:02:17.346Z,56.13
2022-11-05T03:04:44.990Z,60.40
2022-11-05T03:07:18.163Z,58.00
2022-11-05T03:10:01.794Z,51.20
2022-11-05T03:13:06.261Z,57.87
2022-11-05T03:15:57.654Z,82.07
2022-11-05T03:18:52.109Z,67.47
2022-11-05T03:21:42.595Z,74.70
2022-11-05T03:24:19.196Z,70.60
2022-11-05T03:27:01.154Z,47.63
2022-11-05T03:29:43.675Z,49.03
2022-11-05T03:32:13.265Z,41.73
2022-11-05T03:34:52.131Z,45.43
2022-11-05T03:37:24.259Z,38.30
2022-11-05T03:39:56.764Z,43.10
2022-11-05T03:42:32.284Z,37.83
2022-11-05T03:45:06.169Z,37.30
2022-11-05T03:47:39.852Z,34.77
2022-11-05T03:50:41.517Z,36.27
2022-11-05T03:53:26.453Z,36.83
2022-11-05T03:56:08.190Z,44.57
2022-11-05T03:58:37.154Z,41.80
2022-11-05T04:01:05.015Z,36.10
2022-11-05T04:03:36.380Z,38.23
2022-11-05T04:06:25.060Z,46.87
2022-11-05T04:09:11.571Z,39.63
2022-11-05T04:11:57.438Z,44.83
2022-11-05T04:14:26.294Z,42.30
2022-11-05T04:17:06.387Z,40.67
2022-11-05T04:20:00.859Z,39.30
2022-11-05T04:22:50.296Z,46.67
2022-11-05T04:25:19.566Z,41.47
2022-11-05T04:27:47.617Z,40.47
2022-11-05T04:30:20.002Z,49.80
2022-11-05T04:33:15.308Z,47.03
2022-11-05T04:35:47.658Z,30.37
2022-11-05T04:38:18.670Z,32.80
2022-11-05T04:40:47.767Z,34.77
2022-11-05T04:43:19.201Z,44.77
2022-11-05T04:45:48.441Z,41.30
2022-11-05T04:48:15.975Z,36.17
2022-11-05T04:50:43.413Z,50.37
2022-11-05T04:53:11.145Z,33.03
2022-11-05T04:55:38.802Z,38.20
2022-11-05T04:58:06.482Z,40.97
2022-11-05T05:00:33.995Z,32.97
2022-11-05T05:03:01.511Z,39.80
2022-11-05T05:05:30.577Z,34.77
2022-11-05T05:08:05.450Z,40.10
2022-11-05T05:10:33.500Z,40.67
2022-11-05T05:13:00.957Z,61.03
2022-11-05T05:15:28.574Z,68.77
2022-11-05T05:17:56.377Z,77.73
2022-11-05T05:20:42.303Z,95.07
2022-11-05T05:23:11.571Z,84.60
2022-11-05T05:25:40.017Z,83.00
2022-11-05T05:28:07.516Z,90.10
2022-11-05T05:30:35.345Z,73.67
2022-11-05T05:33:04.439Z,43.30
2022-11-05T05:35:32.028Z,37.23
2022-11-05T05:37:59.471Z,87.17
2022-11-05T05:40:27.573Z,77.07
2022-11-05T05:42:56.037Z,86.07
2022-11-05T05:45:23.518Z,99.33
2022-11-05T05:47:51.022Z,107.83
2022-11-05T05:50:18.455Z,148.80
2022-11-05T05:52:52.902Z,168.47
2022-11-05T05:55:20.506Z,187.90
2022-11-05T05:57:47.935Z,238.93
2022-11-05T06:00:15.898Z,309.30
2022-11-05T06:02:43.506Z,295.63
2022-11-05T06:05:11.222Z,223.23
2022-11-05T06:07:38.666Z,236.77
2022-11-05T06:10:06.859Z,343.10
2022-11-05T06:12:34.509Z,358.53
2022-11-05T06:15:02.074Z,367.67
2022-11-05T06:17:29.521Z,338.97
2022-11-05T06:19:57.014Z,288.90
2022-11-05T06:22:24.840Z,220.27
2022-11-05T06:24:52.338Z,194.77
2022-11-05T06:27:19.779Z,183.17
2022-11-05T06:29:47.226Z,128.77
2022-11-05T06:32:14.662Z,66.20
2022-11-05T06:34:42.133Z,55.43
2022-11-05T06:37:09.606Z,36.90
2022-11-05T06:39:37.122Z,42.23
2022-11-05T06:42:17.945Z,33.17
2022-11-05T06:44:46.202Z,36.97
2022-11-05T06:47:13.670Z,39.10
2022-11-05T06:49:41.303Z,37.67
2022-11-05T06:52:09.282Z,33.70
2022-11-05T06:54:37.135Z,31.73
2022-11-05T06:57:06.168Z,31.73
2022-11-05T06:59:34.496Z,24.17
2022-11-05T07:02:03.341Z,55.50
2022-11-05T07:04:30.894Z,30.57
2022-11-05T07:07:01.191Z,31.07
2022-11-05T07:09:29.999Z,42.93
2022-11-05T07:11:57.443Z,23.93
2022-11-05T07:14:24.902Z,23.90
2022-11-05T07:16:52.396Z,20.40
2022-11-05T07:19:19.928Z,19.80
2022-11-05T07:21:48.699Z,38.37
2022-11-05T07:24:16.331Z,31.27
2022-11-05T07:26:43.974Z,27.07
2022-11-05T07:29:11.497Z,25.90
2022-11-05T07:31:39.019Z,28.60
2022-11-05T07:34:06.624Z,24.33
2022-11-05T07:36:34.652Z,28.10
2022-11-05T07:39:02.436Z,30.23
2022-11-05T07:41:29.910Z,49.03
2022-11-05T07:43:57.585Z,41.40
2022-11-05T07:46:25.126Z,29.87
2022-11-05T07:48:52.712Z,36.80
2022-11-05T07:51:20.204Z,31.77
2022-11-05T07:53:48.568Z,37.00
2022-11-05T07:56:16.812Z,33.80
2022-11-05T07:58:44.415Z,30.37
2022-11-05T08:01:12.104Z,29.30
2022-11-05T08:03:39.758Z,30.30
2022-11-05T08:06:07.778Z,37.83
2022-11-05T08:08:36.189Z,38.33
2022-11-05T08:11:06.640Z,34.87
2022-11-05T08:13:35.148Z,45.17
2022-11-05T08:16:03.917Z,43.60
2022-11-05T08:18:33.278Z,39.33
2022-11-05T08:21:06.043Z,36.53
2022-11-05T08:23:34.318Z,39.10
2022-11-05T08:26:04.391Z,39.77
2022-11-05T08:28:32.114Z,40.27
2022-11-05T08:30:59.803Z,40.37
2022-11-05T08:33:29.491Z,37.87
2022-11-05T08:35:57.022Z,37.90
2022-11-05T08:38:24.426Z,37.67
2022-11-05T08:40:59.166Z,41.43
2022-11-05T08:43:27.357Z,49.80
2022-11-05T08:45:55.158Z,89.00
2022-11-05T08:48:22.759Z,40.77
2022-11-05T08:50:50.571Z,35.53
2022-11-05T08:53:18.480Z,32.10
2022-11-05T08:55:47.835Z,33.80
2022-11-05T08:58:17.410Z,32.33
2022-11-05T09:00:48.905Z,27.03
2022-11-05T09:03:17.765Z,31.57
2022-11-05T09:05:45.393Z,30.60
2022-11-05T09:08:18.948Z,25.80
2022-11-05T09:10:48.088Z,31.83
2022-11-05T09:13:19.327Z,30.70
2022-11-05T09:15:49.324Z,29.03
2022-11-05T09:18:18.854Z,34.03
2022-11-05T09:20:47.121Z,28.43
2022-11-05T09:23:15.861Z,36.63
2022-11-05T09:25:44.536Z,30.23
2022-11-05T09:28:17.329Z,33.00
2022-11-05T09:30:51.678Z,30.40
2022-11-05T09:33:23.614Z,30.67
2022-11-05T09:35:52.052Z,30.13
2022-11-05T09:38:20.066Z,31.97
2022-11-05T09:41:04.246Z,30.23
2022-11-05T09:43:45.082Z,34.77
2022-11-05T09:46:27.517Z,31.03
2022-11-05T09:49:04.500Z,30.53
2022-11-05T09:51:33.177Z,29.40
2022-11-05T09:54:05.382Z,58.90
2022-11-05T09:56:37.649Z,33.90
2022-11-05T09:59:28.117Z,32.90
2022-11-05T10:02:12.095Z,35.60
2022-11-05T10:04:40.523Z,30.77
2022-11-05T10:07:15.609Z,33.03
2022-11-05T10:09:48.797Z,34.30
2022-11-05T10:12:50.500Z,32.97
2022-11-05T10:15:26.546Z,33.60
2022-11-05T10:18:20.112Z,34.80
2022-11-05T10:20:50.034Z,35.10
2022-11-05T10:23:21.573Z,32.03
2022-11-05T10:26:04.224Z,41.87
2022-11-05T10:28:34.374Z,36.53
2022-11-05T10:31:09.519Z,29.03
2022-11-05T10:33:57.107Z,32.30
2022-11-05T10:36:38.010Z,34.30
2022-11-05T10:39:18.120Z,37.27
2022-11-05T10:41:52.896Z,26.77
2022-11-05T10:44:34.399Z,28.63
2022-11-05T10:48:16.838Z,26.67
2022-11-05T10:50:45.633Z,30.63
2022-11-05T10:53:22.114Z,27.63
2022-11-05T10:55:54.314Z,26.90
2022-11-05T10:58:30.201Z,24.07
2022-11-05T11:00:57.872Z,23.20
2022-11-05T11:03:48.771Z,25.10
2022-11-05T11:06:28.199Z,25.60
2022-11-05T11:09:17.530Z,22.20
2022-11-05T11:11:46.038Z,19.73
2022-11-05T11:14:13.560Z,30.10
2022-11-05T11:16:47.654Z,26.33
2022-11-05T11:19:35.136Z,23.50
2022-11-05T11:22:05.697Z,25.50
2022-11-05T11:24:52.315Z,22.67
2022-11-05T11:27:28.534Z,19.88
2022-11-05T11:30:02.551Z,28.88
2022-11-05T11:32:40.178Z,28.33
2022-11-05T11:35:26.007Z,21.45
2022-11-05T11:37:57.150Z,23.60
2022-11-05T11:40:35.549Z,20.27
2022-11-05T11:43:28.392Z,18.13
2022-11-05T11:46:04.847Z,30.20
2022-11-05T11:48:37.070Z,24.27
2022-11-05T11:51:30.462Z,24.73
2022-11-05T11:54:02.837Z,24.92
2022-11-05T11:56:43.132Z,23.70
2022-11-05T11:59:46.890Z,30.67
2022-11-05T12:02:44.254Z,22.23
2022-11-05T12:05:59.588Z,27.13
2022-11-05T12:09:11.173Z,20.40
2022-11-05T12:12:00.865Z,21.23
2022-11-05T12:15:01.740Z,20.30
2022-11-05T12:18:02.107Z,22.27
2022-11-05T12:20:48.033Z,24.08
2022-11-05T12:23:37.120Z,24.20
2022-11-05T12:26:25.761Z,20.52
2022-11-05T12:29:23.876Z,24.92
2022-11-05T12:32:12.932Z,22.90
2022-11-05T12:35:44.131Z,24.55
2022-11-05T12:38:58.244Z,20.90
2022-11-05T12:42:35.227Z,22.92
2022-11-05T12:45:26.131Z,20.50
2022-11-05T12:48:16.659Z,22.50
2022-11-05T12:50:57.181Z,19.13
2022-11-05T12:53:37.563Z,21.83
2022-11-05T12:56:33.682Z,22.73
2022-11-05T12:59:25.935Z,21.97
2022-11-05T13:02:15.337Z,21.27
2022-11-05T13:05:10.081Z,20.98
2022-11-05T13:08:05.321Z,25.27
2022-11-05T13:10:51.131Z,21.33
2022-11-05T13:13:51.985Z,23.90
2022-11-05T13:16:39.851Z,22.23
2022-11-05T13:19:32.546Z,26.17
2022-11-05T13:22:30.451Z,20.42
2022-11-05T13:25:19.611Z,23.77
2022-11-05T13:28:35.628Z,19.48
2022-11-05T13:31:06.785Z,18.83
2022-11-05T13:33:44.744Z,21.73
2022-11-05T13:36:52.491Z,21.00
2022-11-05T13:39:24.367Z,22.87
2022-11-05T13:42:35.224Z,21.13
2022-11-05T13:45:39.056Z,27.57
2022-11-05T13:48:48.412Z,30.10
2022-11-05T13:51:40.511Z,24.40
2022-11-05T13:54:29.552Z,20.33
2022-11-05T13:57:26.210Z,34.27
2022-11-05T14:00:17.596Z,24.63
2022-11-05T14:02:55.324Z,36.67
2022-11-05T14:05:35.328Z,26.43
2022-11-05T14:08:15.334Z,28.77
2022-11-05T14:11:00.685Z,27.37
2022-11-05T14:14:06.866Z,40.33
2022-11-05T14:16:57.220Z,28.90
2022-11-05T14:19:33.446Z,41.87
2022-11-05T14:22:01.784Z,60.20
2022-11-05T14:24:38.614Z,38.53
2022-11-05T14:27:10.507Z,57.90
2022-11-05T14:29:44.771Z,64.00
2022-11-05T14:32:22.071Z,55.27
2022-11-05T14:35:17.207Z,41.60
2022-11-05T14:37:54.056Z,40.23
2022-11-05T14:40:42.568Z,40.57
2022-11-05T14:43:16.100Z,39.07
2022-11-05T14:46:17.371Z,34.20
2022-11-05T14:49:09.310Z,45.80
2022-11-05T14:51:44.453Z,46.93
2022-11-05T14:54:34.814Z,49.97
2022-11-05T14:57:03.522Z,62.33
2022-11-05T14:59:32.487Z,54.00
2022-11-05T15:02:20.871Z,54.87
2022-11-05T15:04:51.040Z,62.37
2022-11-05T15:07:24.374Z,55.73
2022-11-05T15:09:54.839Z,58.73
2022-11-05T15:12:50.845Z,56.33
2022-11-05T15:15:39.743Z,60.53
2022-11-05T15:18:17.854Z,73.70
2022-11-05T15:20:52.583Z,75.33
2022-11-05T15:23:31.217Z,92.77
2022-11-05T15:26:04.657Z,113.97
2022-11-05T15:28:51.156Z,122.17
2022-11-05T15:31:44.151Z,105.10
2022-11-05T15:34:32.503Z,112.23
2022-11-05T15:37:25.441Z,98.73
2022-11-05T15:39:57.684Z,177.40
2022-11-05T15:42:28.512Z,123.00
2022-11-05T15:45:00.490Z,148.53
2022-11-05T15:47:36.114Z,139.83
2022-11-05T15:50:17.367Z,93.67
2022-11-05T15:52:56.699Z,109.90
2022-11-05T15:55:31.272Z,71.50
2022-11-05T15:58:07.460Z,58.43
2022-11-05T16:00:39.121Z,44.37
2022-11-05T16:03:28.984Z,75.43
2022-11-05T16:05:57.493Z,80.97
2022-11-05T16:08:33.510Z,56.07
2022-11-05T16:11:02.736Z,47.30
2022-11-05T16:13:39.551Z,61.07
2022-11-05T16:16:19.420Z,62.67
2022-11-05T16:18:50.474Z,75.23
2022-11-05T16:21:23.737Z,80.43
2022-11-05T16:24:01.475Z,57.97
2022-11-05T16:27:01.810Z,70.10
2022-11-05T16:29:41.228Z,46.77
2022-11-05T16:32:31.572Z,51.73
2022-11-05T16:35:09.770Z,44.33
2022-11-05T16:37:47.737Z,45.80
2022-11-05T16:40:25.947Z,47.27
2022-11-05T16:42:55.401Z,54.77
2022-11-05T16:45:25.542Z,47.50
2022-11-05T16:47:53.380Z,48.30
2022-11-05T16:50:30.470Z,45.93
2022-11-05T16:53:01.804Z,40.20
2022-11-05T16:55:32.298Z,41.23
2022-11-05T16:58:00.704Z,41.70
2022-11-05T17:00:36.676Z,38.40
2022-11-05T17:03:08.215Z,45.93
2022-11-05T17:05:38.140Z,49.70
2022-11-05T17:08:09.260Z,38.43
2022-11-05T17:10:41.142Z,39.23
2022-11-05T17:13:18.782Z,38.93
2022-11-05T17:16:16.168Z,37.23
2022-11-05T17:18:46.908Z,39.53
2022-11-05T17:21:16.725Z,35.57
2022-11-05T17:23:47.271Z,42.57
2022-11-05T17:26:22.959Z,36.63
2022-11-05T17:28:55.322Z,42.83
2022-11-05T17:31:23.173Z,36.50
2022-11-05T17:33:50.862Z,38.27
2022-11-05T17:36:21.289Z,36.97
2022-11-05T17:38:55.273Z,38.40
2022-11-05T17:41:25.670Z,46.10
2022-11-05T17:43:58.578Z,61.93
2022-11-05T17:46:27.450Z,58.10
2022-11-05T17:48:56.317Z,58.30
2022-11-05T17:51:24.074Z,50.50
2022-11-05T17:53:54.541Z,51.83
2022-11-05T17:56:33.846Z,51.10
2022-11-05T17:59:03.830Z,35.57
2022-11-05T18:01:36.038Z,29.40
2022-11-05T18:04:08.888Z,31.83
2022-11-05T18:06:39.694Z,30.20
2022-11-05T18:09:11.050Z,37.57
2022-11-05T18:11:40.728Z,32.73
2022-11-05T18:14:12.206Z,29.37
2022-11-05T18:16:39.961Z,27.90
2022-11-05T18:19:10.566Z,34.97
2022-11-05T18:21:45.207Z,34.80
2022-11-05T18:24:12.980Z,32.17
2022-11-05T18:26:40.670Z,36.00
2022-11-05T18:29:09.057Z,49.17
2022-11-05T18:31:36.880Z,51.93
2022-11-05T18:34:05.316Z,41.10
2022-11-05T18:36:36.059Z,40.93
2022-11-05T18:39:07.879Z,38.47
2022-11-05T18:41:37.159Z,40.70
2022-11-05T18:44:06.025Z,54.57
2022-11-05T18:46:57.073Z,42.70
2022-11-05T18:49:24.131Z,46.37
2022-11-05T18:51:51.902Z,46.33
2022-11-05T18:54:21.659Z,40.03
2022-11-05T18:56:52.064Z,43.50
2022-11-05T18:59:38.613Z,46.00
2022-11-05T19:02:10.931Z,63.50
2022-11-05T19:04:39.099Z,71.97
2022-11-05T19:07:10.897Z,72.90
2022-11-05T19:09:40.641Z,75.90
2022-11-05T19:12:10.422Z,75.90
2022-11-05T19:14:38.270Z,67.40
2022-11-05T19:17:06.116Z,73.80
2022-11-05T19:19:33.944Z,93.80
2022-11-05T19:22:05.304Z,99.90
2022-11-05T19:24:38.948Z,85.70
2022-11-05T19:27:06.735Z,90.57
2022-11-05T19:29:37.157Z,77.60
2022-11-05T19:32:05.234Z,74.50
2022-11-05T19:34:33.134Z,73.00
2022-11-05T19:37:01.437Z,57.87
2022-11-05T19:39:29.378Z,56.60
2022-11-05T19:42:03.767Z,60.63
2022-11-05T19:44:32.041Z,60.00
2022-11-05T19:46:59.822Z,63.10
2022-11-05T19:49:28.819Z,64.50
2022-11-05T19:51:58.456Z,53.60
2022-11-05T19:54:26.424Z,47.33
2022-11-05T19:56:56.500Z,35.33
2022-11-05T19:59:25.737Z,24.87
2022-11-05T20:01:53.550Z,27.13
2022-11-05T20:04:23.369Z,16.63
2022-11-05T20:06:54.649Z,19.93
2022-11-05T20:09:23.270Z,15.93
2022-11-05T20:12:14.146Z,14.97
2022-11-05T20:14:41.957Z,13.13
2022-11-05T20:17:13.010Z,13.77
2022-11-05T20:19:47.960Z,12.90
2022-11-05T20:22:15.758Z,14.43
2022-11-05T20:24:43.616Z,16.10
2022-11-05T20:27:14.023Z,15.67
2022-11-05T20:29:41.908Z,10.63
2022-11-05T20:32:12.631Z,13.33
2022-11-05T20:34:40.580Z,12.63
2022-11-05T20:37:08.604Z,13.57
2022-11-05T20:39:39.371Z,13.40
2022-11-05T20:42:07.713Z,12.23
2022-11-05T20:44:36.031Z,13.63
2022-11-05T20:47:03.802Z,12.60
2022-11-05T20:49:31.668Z,27.10
2022-11-05T20:52:02.282Z,22.30
2022-11-05T20:54:30.038Z,17.50
2022-11-05T20:56:59.050Z,13.77
2022-11-05T20:59:28.729Z,15.80
2022-11-05T21:01:58.637Z,14.33
2022-11-05T21:04:31.254Z,12.47
2022-11-05T21:06:59.044Z,13.70
2022-11-05T21:09:28.823Z,12.97
2022-11-05T21:12:11.983Z,13.43
2022-11-05T21:14:44.480Z,10.27
2022-11-05T21:17:14.859Z,13.00
2022-11-05T21:19:45.692Z,13.63
2022-11-05T21:22:17.220Z,12.20
2022-11-05T21:24:46.529Z,11.20
2022-11-05T21:27:14.285Z,11.33
2022-11-05T21:29:42.521Z,9.50
2022-11-05T21:32:13.741Z,9.47
2022-11-05T21:34:42.582Z,14.37
2022-11-05T21:37:11.392Z,13.63
2022-11-05T21:39:42.604Z,12.93
2022-11-05T21:42:10.343Z,12.87
2022-11-05T21:44:38.068Z,11.33
2022-11-05T21:47:06.027Z,12.20
2022-11-05T21:49:36.122Z,13.73
2022-11-05T21:52:24.969Z,12.17
2022-11-05T21:55:11.218Z,12.07
2022-11-05T21:57:58.554Z,15.73
2022-11-05T22:00:26.464Z,14.37
2022-11-05T22:02:58.761Z,13.30
2022-11-05T22:05:28.054Z,13.87
2022-11-05T22:07:56.958Z,17.03
2022-11-05T22:10:24.852Z,16.50
2022-11-05T22:12:52.523Z,12.23
2022-11-05T22:15:20.380Z,17.57
2022-11-05T22:17:51.995Z,11.90
2022-11-05T22:20:22.599Z,15.30
2022-11-05T22:22:50.474Z,15.13
2022-11-05T22:25:18.322Z,12.17
2022-11-05T22:27:46.315Z,16.97
2022-11-05T22:30:14.882Z,22.80
2022-11-05T22:32:42.765Z,24.97
2022-11-05T22:35:10.908Z,20.70
2022-11-05T22:37:38.676Z,23.23
2022-11-05T22:40:07.113Z,34.00
2022-11-05T22:42:34.929Z,18.47
2022-11-05T22:45:02.871Z,18.37
2022-11-05T22:47:30.531Z,16.60
2022-11-05T22:49:58.542Z,21.03
2022-11-05T22:52:27.884Z,16.63
2022-11-05T22:54:55.595Z,15.43
2022-11-05T22:57:23.273Z,13.53
2022-11-05T22:59:51.467Z,12.97
2022-11-05T23:02:19.360Z,15.37
2022-11-05T23:04:47.247Z,13.17
2022-11-05T23:07:33.568Z,13.00
2022-11-05T23:10:20.022Z,15.37
2022-11-05T23:12:48.264Z,16.00
2022-11-05T23:15:34.205Z,10.87
2022-11-05T23:18:20.953Z,17.83
2022-11-05T23:21:07.009Z,16.57
2022-11-05T23:23:53.672Z,10.60
2022-11-05T23:26:40.175Z,12.80
2022-11-05T23:29:07.900Z,14.13
2022-11-05T23:31:53.939Z,13.30
2022-11-05T23:34:21.600Z,15.47
2022-11-05T23:37:09.184Z,14.97
2022-11-05T23:39:41.402Z,13.63
2022-11-05T23:42:29.173Z,19.40
2022-11-05T23:45:15.611Z,14.87
2022-11-05T23:48:02.627Z,17.47
2022-11-05T23:50:35.620Z,14.57
2022-11-05T23:53:07.451Z,15.87
2022-11-05T23:55:35.685Z,14.40
2022-11-05T23:58:03.346Z,14.83
